Station: Lake Macquarie - Cooranbong  

  Atmospheric Gas Attenuation - ITU Rec 676-11   ----------------- dB/100km -----------------
Date Time Temp RH % AH g/m3 Dew Point Wind Direction Speed kph Gust kph Barometer mB Rainfall Since 9am 24GHz 47GHz 76GHz 122GHz 134GHz 241GHz
08/05 12:30 20.4 36 6.37 4.8 13 24 1017.1 0 14.6 21.0 29.0 75.5 64.8 221.6
08/05 12:20 20.5 36 6.41 4.9 13 17 1017.1 0 14.7 21.0 29.1 75.8 65.2 222.9
08/05 12:10 20.6 38 6.8 5.8 9 15 1017.3 0 15.5 21.6 30.4 79.2 69.5 238.0
08/05 12:00 19.9 40 6.87 5.9 9 19 1017.5 0 15.7 21.8 30.9 80.6 70.9 242.9
08/05 11:50 19.8 39 6.66 5.4 7 13 1017.8 0 15.2 21.6 30.2 78.8 68.6 234.8
08/05 11:40 19.4 40 6.67 5.4 11 17 1018.1 0 15.3 21.7 30.4 79.3 69.1 236.4
08/05 11:30 19.1 40 6.56 5.2 11 20 1018.2 0 15.0 21.6 30.1 78.6 68.1 232.9
08/05 11:20 19.1 42 6.88 5.9 11 15 1018.3 0 15.7 22.1 31.2 81.5 71.8 245.9
08/05 11:10 18.8 43 6.92 5.9 7 11 1018.3 0 15.8 22.2 31.5 82.2 72.5 248.4
08/05 11:00 18.3 42 6.57 5.2 9 19 1018.4 0 15.1 21.8 30.4 79.4 68.9 235.6
08/05 10:50 18 43 6.6 5.5 11 17 1018.4 0 15.2 21.9 30.7 80.0 69.5 237.7
08/05 10:40 17.9 45 6.87 5.8 9 15 1018.7 0 15.7 22.4 31.7 82.7 72.8 249.2
08/05 10:30 17.4 45 6.67 5.4 11 20 1018.8 0 15.3 22.2 31.1 81.3 70.9 242.5
08/05 10:20 17.3 45 6.63 5.2 13 22 1018.8 0 15.3 22.2 31.0 81.0 70.5 241.1
08/05 10:10 16.8 44 6.29 4.5 17 20 1018.8 0 14.6 21.8 30.0 78.3 67.0 228.6
08/05 10:00 16.6 46 6.5 4.9 11 20 1019 0 15.0 22.1 30.9 80.5 69.6 237.8
08/05 09:50 16.3 46 6.38 4.9 9 15 1019 0 14.8 22.0 30.5 79.7 68.4 233.7
08/05 09:40 16.2 46 6.34 4.8 7 9 1018.9 0 14.7 22.0 30.4 79.4 68.1 232.4
08/05 09:30 15.5 48 6.34 4.6 11 19 1019 0 14.7 22.2 30.7 80.1 68.7 234.4
08/05 09:20 15.2 49 6.36 4.5 9 13 1019 0 14.8 22.3 30.9 80.6 69.2 236.1
08/05 09:10 15 48 6.15 4.3 9 19 1019.1 0 14.3 22.0 30.2 78.7 66.8 227.9
08/05 09:00 14.7 50 6.3 4.4 9 15 1019.1 0 14.7 22.3 30.9 80.5 68.9 235.1
08/05 08:50 14.4 49 6.06 3.8 11 17 1019.1 0 14.2 22.0 30.1 78.4 66.3 225.8
08/05 08:40 14.3 51 6.27 4.3 6 9 1019.2 0 14.6 22.4 30.9 80.6 68.9 235.0
08/05 08:30 13.9 50 5.99 3.7 7 15 1019.2 0 14.0 22.1 30.0 78.3 65.8 224.3
08/05 08:20 13.5 50 5.85 3.3 9 13 1019.2 0 13.7 21.9 29.7 77.3 64.5 219.5
08/05 08:10 13.2 51 5.86 3.3 7 11 1019.2 0 13.8 22.0 29.8 77.7 64.9 220.7
08/05 08:00 12.6 51 5.64 2.7 13 24 1019.2 0 13.3 21.9 29.2 76.1 62.7 213.1
08/05 07:50 12 52 5.54 2.4 19 22 1019.1 0 13.1 21.8 29.1 75.7 62.0 210.4
08/05 07:40 11.9 52 5.51 2.3 13 17 1019.1 0 13.1 21.8 29.0 75.5 61.7 209.4
08/05 07:30 11.8 53 5.58 2.5 7 15 1019 0 13.2 21.9 29.3 76.3 62.6 212.6
08/05 07:20 11.4 54 5.54 2.4 6 11 1018.9 0 13.2 22.0 29.3 76.2 62.4 211.9
08/05 07:10 10.9 55 5.47 2.2 9 17 1018.7 0 13.0 22.0 29.2 76.0 61.9 210.2
08/05 07:00 10.8 55 5.44 2.1 7 15 1018.7 0 13.0 22.0 29.1 75.8 61.7 209.2
08/05 06:50 10.8 54 5.34 1.8 6 13 1018.8 0 12.8 21.8 28.8 74.8 60.4 204.9
08/05 06:40 10.5 55 5.34 1.8 0 0 1019 0 12.8 21.9 28.9 75.1 60.7 205.7
08/05 06:30 10.6 54 5.27 1.7 6 13 1019 0 12.6 21.8 28.6 74.3 59.8 202.5
08/05 06:20 10.5 54 5.24 1.6 11 15 1018.9 0 12.6 21.7 28.5 74.1 59.5 201.4
08/05 06:10 10.7 53 5.21 1.5 7 13 1018.8 0 12.5 21.7 28.3 73.6 58.9 199.6
08/05 06:00 10.6 54 5.27 1.7 6 15 1018.9 0 12.6 21.8 28.6 74.3 59.7 202.5
08/05 05:50 10.5 54 5.24 1.6 6 9 1018.9 0 12.6 21.7 28.5 74.1 59.5 201.4
08/05 05:40 9.9 55 5.14 1.3 2 7 1018.8 0 12.4 21.7 28.3 73.7 58.7 198.6
08/05 05:30 10 55 5.17 1.4 6 15 1018.6 0 12.4 21.8 28.4 73.9 59.0 199.6
08/05 05:20 10.3 54 5.17 1.4 4 7 1018.7 0 12.4 21.7 28.3 73.6 58.7 198.9
08/05 05:10 10 54 5.08 1.3 6 7 1018.6 0 12.2 21.6 28.1 73.0 57.9 195.8
08/05 05:00 10.2 54 5.14 1.3 7 15 1018.5 0 12.4 21.7 28.2 73.4 58.4 197.8
08/05 04:50 10.2 54 5.14 1.3 15 20 1018.5 0 12.4 21.7 28.2 73.4 58.4 197.8
08/05 04:40 10.2 54 5.14 1.3 7 9 1018.6 0 12.4 21.7 28.2 73.4 58.4 197.9
08/05 04:30 10.3 55 5.27 1.7 7 20 1018.6 0 12.6 21.8 28.7 74.6 60.0 203.2
08/05 04:20 9.9 58 5.42 2 4 6 1018.6 0 13.0 22.2 29.4 76.5 62.1 210.6
08/05 04:10 8.6 62 5.33 1.7 4 9 1018.7 0 12.8 22.3 29.5 76.8 62.0 210.2
08/05 04:00 8.4 61 5.18 1.3 4 6 1018.8 0 12.5 22.2 29.0 75.5 60.3 204.1
08/05 03:50 9.7 55 5.07 1.1 2 4 1018.8 0 12.2 21.7 28.1 73.2 58.0 196.1
08/05 03:40 9.7 55 5.07 1.1 2 4 1018.7 0 12.2 21.7 28.1 73.2 58.0 196.1
08/05 03:30 9.8 54 5.01 0.9 6 9 1018.8 0 12.1 21.6 27.9 72.5 57.2 193.3
08/05 03:20 9.7 53 4.89 0.6 6 11 1018.9 0 11.8 21.4 27.5 71.4 55.8 188.5
08/05 03:10 10.1 52 4.92 0.7 4 6 1019.1 0 11.9 21.4 27.5 71.4 55.9 188.8
08/05 03:00 10.2 51 4.85 0.5 6 11 1019 0 11.7 21.2 27.2 70.6 55.0 185.6
08/05 02:50 10.4 50 4.82 0.4 7 9 1019.2 0 11.7 21.2 27.0 70.2 54.5 183.9
08/05 02:40 10.6 49 4.78 0.3 9 9 1019.3 0 11.6 21.1 26.8 69.6 53.9 181.8
08/05 02:30 10.7 49 4.81 0.4 11 20 1019.4 0 11.6 21.1 26.9 69.8 54.2 182.9
08/05 02:20 10.5 49 4.75 0.2 7 17 1019.4 0 11.5 21.0 26.7 69.4 53.6 180.8
08/05 02:10 10.5 49 4.75 0.2 9 13 1019.4 0 11.5 21.0 26.7 69.4 53.6 180.8
08/05 02:00 10.5 48 4.66 0 9 17 1019.6 0 11.3 20.9 26.4 68.6 52.5 177.1
08/05 01:50 10.3 48 4.6 -0.3 7 13 1019.7 0 11.2 20.9 26.3 68.2 52.0 175.0
08/05 01:40 10.3 48 4.6 -0.3 11 15 1019.8 0 11.2 20.9 26.3 68.2 52.0 175.0
08/05 01:30 10.7 47 4.62 -0.1 9 19 1019.8 0 11.2 20.8 26.2 68.0 51.9 175.0
08/05 01:20 10.8 46 4.55 -0.4 9 13 1019.9 0 11.1 20.7 25.9 67.3 51.1 171.9
08/05 01:10 10.6 47 4.59 -0.3 4 4 1019.9 0 11.2 20.8 26.1 67.8 51.7 174.0
08/05 01:00 10.7 46 4.52 -0.4 7 15 1020 0 11.0 20.7 25.9 67.1 50.8 170.9
08/05 00:50 10.8 46 4.55 -0.4 11 15 1019.9 0 11.1 20.7 25.9 67.3 51.1 171.9
08/05 00:40 10.7 46 4.52 -0.5 9 13 1020 0 11.0 20.7 25.9 67.1 50.8 170.9
08/05 00:20 10.8 46 4.55 -0.4 6 7 1020.1 0 11.1 20.7 26.0 67.3 51.1 171.9
08/05 00:10 10.9 45 4.48 -0.6 11 19 1020.1 0 10.9 20.6 25.7 66.5 50.2 168.9
08/05 00:00 10.9 45 4.48 -0.5 9 19 1020 0 10.9 20.6 25.7 66.5 50.2 168.8
07/05 23:50 10.9 45 4.48 -0.6 9 15 1020.1 0 10.9 20.6 25.7 66.5 50.2 168.9
07/05 23:40 10.9 45 4.48 -0.6 7 11 1020 0 10.9 20.6 25.7 66.5 50.2 168.8
07/05 23:30 10.9 45 4.48 -0.5 11 24 1019.8 0 10.9 20.6 25.7 66.5 50.2 168.8
07/05 23:20 11 45 4.51 -0.5 11 15 1020 0 11.0 20.6 25.7 66.7 50.5 169.9
07/05 23:10 10.9 45 4.48 -0.6 9 13 1020 0 10.9 20.6 25.7 66.5 50.2 168.8
07/05 23:00 11.3 44 4.49 -0.5 11 24 1019.9 0 10.9 20.5 25.6 66.3 50.0 168.4
07/05 22:50 11.1 44 4.43 -0.7 9 15 1019.9 0 10.8 20.5 25.4 65.9 49.5 166.4
07/05 22:40 11.1 44 4.43 -0.7 11 15 1019.9 0 10.8 20.5 25.4 65.9 49.5 166.4
07/05 22:30 11.2 43 4.36 -0.9 6 13 1019.9 0 10.7 20.3 25.1 65.2 48.6 163.3
07/05 22:20 11.5 42 4.34 -1 6 9 1019.9 0 10.6 20.3 25.0 64.7 48.2 161.9
07/05 22:10 11.7 42 4.39 -0.8 11 15 1020 0 10.7 20.3 25.1 65.0 48.6 163.5
07/05 22:00 11.7 42 4.39 -0.8 9 20 1020.2 0 10.7 20.3 25.1 65.1 48.6 163.6
07/05 21:50 11.8 41 4.32 -1 15 20 1020.3 0 10.6 20.2 24.8 64.3 47.8 160.5
07/05 21:40 12 41 4.37 -0.9 11 19 1020.3 0 10.7 20.2 25.0 64.6 48.2 162.2
07/05 21:30 11.9 41 4.34 -0.9 11 24 1020.2 0 10.6 20.2 24.9 64.4 48.0 161.1
07/05 21:20 12 40 4.26 -1.2 11 15 1020.2 0 10.4 20.0 24.6 63.6 47.0 157.7
07/05 21:10 12.3 39 4.24 -1.3 11 15 1020 0 10.4 19.9 24.4 63.2 46.6 156.3
07/05 21:00 12.4 39 4.26 -1.1 11 28 1019.8 0 10.4 19.9 24.4 63.3 46.7 156.9
07/05 20:50 12.3 39 4.24 -1.3 11 19 1019.7 0 10.4 19.9 24.4 63.2 46.6 156.3
07/05 20:40 12.3 39 4.24 -1.3 6 7 1019.7 0 10.4 19.9 24.4 63.2 46.6 156.3
07/05 20:30 12.6 38 4.2 -1.3 9 17 1019.5 0 10.3 19.8 24.2 62.5 45.9 154.1
07/05 20:20 12.5 39 4.29 -1.1 11 15 1019.6 0 10.5 20.0 24.5 63.5 47.0 157.9
07/05 20:10 12.5 38 4.18 -1.5 15 20 1019.6 0 10.3 19.8 24.1 62.5 45.8 153.5
07/05 20:00 12.5 38 4.18 -1.4 9 20 1019.6 0 10.3 19.8 24.1 62.5 45.8 153.5
07/05 19:50 13.1 36 4.11 -1.7 15 20 1019.4 0 10.1 19.6 23.7 61.3 44.6 149.6

Last Refresh: 08-May-2026 12:09:36

Bureau of Meteorology